Time;durP1;ratioP1;P1;durP2;ratioP2;P2;SDS_P1;SDS_P2;PMS_P1;PMS_P2;Temp;Humidity;BMP_temperature;BMP_pressure;BME280_temperature;BME280_humidity;BME280_pressure;Samples;Min_cycle;Max_cycle;Signal;HPM_P1;HPM_P2
2023/04/12 06:31:27;;;;;;;2.13;0.90;;;9.90;99.90;;;;;;6903572;23;20536;-81
2023/04/12 06:34:29;;;;;;;2.85;0.88;;;9.90;99.90;;;;;;6203408;28;20173;-76
2023/04/12 06:37:31;;;;;;;2.70;0.85;;;9.90;99.90;;;;;;6203363;28;20050;-78
2023/04/12 06:40:33;;;;;;;1.63;0.80;;;9.80;99.90;;;;;;6192099;28;20043;-78
2023/04/12 06:43:35;;;;;;;1.95;0.75;;;9.90;99.90;;;;;;6179329;28;20047;-78
2023/04/12 06:46:39;;;;;;;1.90;0.80;;;10.00;99.90;;;;;;6199251;28;20051;-78
2023/04/12 06:49:41;;;;;;;1.92;0.90;;;10.10;99.90;;;;;;6201547;28;20190;-77
2023/04/12 06:52:42;;;;;;;2.22;0.73;;;10.00;99.90;;;;;;6203008;28;20046;-78
2023/04/12 06:55:44;;;;;;;2.78;0.98;;;10.00;99.90;;;;;;6202887;28;20046;-79
2023/04/12 06:58:46;;;;;;;2.53;0.90;;;10.10;99.90;;;;;;6203406;28;20050;-78
2023/04/12 07:01:49;;;;;;;3.25;0.90;;;10.10;99.90;;;;;;6196054;28;20043;-81
2023/04/12 07:04:52;;;;;;;3.40;1.15;;;10.20;99.90;;;;;;6178403;28;20412;-82
2023/04/12 07:07:54;;;;;;;1.92;0.82;;;10.30;99.90;;;;;;6183787;28;20053;-79
2023/04/12 07:10:56;;;;;;;2.35;0.90;;;10.40;99.90;;;;;;6187583;28;20083;-80
2023/04/12 07:13:59;;;;;;;3.03;0.90;;;10.30;99.90;;;;;;6185766;28;20054;-79
2023/04/12 07:17:02;;;;;;;1.88;0.90;;;10.50;99.90;;;;;;6190802;28;20053;-77
2023/04/12 07:20:05;;;;;;;3.45;0.98;;;10.60;99.90;;;;;;6202454;28;20061;-77
2023/04/12 07:23:06;;;;;;;3.53;0.97;;;10.60;99.90;;;;;;6209488;28;20041;-78
2023/04/12 07:26:08;;;;;;;3.40;1.10;;;10.60;99.90;;;;;;6226054;28;20308;-77
2023/04/12 07:29:10;;;;;;;4.55;1.02;;;10.50;99.90;;;;;;6224660;28;20050;-78
2023/04/12 07:32:14;;;;;;;2.22;0.88;;;10.40;99.90;;;;;;6187423;28;20054;-76
2023/04/12 07:35:15;;;;;;;3.55;0.98;;;10.50;99.90;;;;;;6177686;28;20050;-78
2023/04/12 07:38:18;;;;;;;2.97;1.02;;;10.70;99.90;;;;;;6176996;28;20563;-79
2023/04/12 07:41:19;;;;;;;2.92;1.10;;;10.80;99.90;;;;;;6165321;28;20133;-77
2023/04/12 07:44:21;;;;;;;2.80;0.88;;;10.90;99.90;;;;;;6177653;28;20051;-79
2023/04/12 07:47:25;;;;;;;2.72;1.10;;;10.90;99.90;;;;;;6177396;28;20488;-80
2023/04/12 07:50:26;;;;;;;3.08;1.00;;;10.80;99.90;;;;;;6177862;28;20096;-76
2023/04/12 07:53:30;;;;;;;2.80;1.10;;;10.60;99.90;;;;;;6177362;28;20511;-79
2023/04/12 07:56:35;;;;;;;4.00;1.20;;;10.60;99.90;;;;;;6176761;28;20445;-79
2023/04/12 07:59:37;;;;;;;2.33;0.90;;;10.90;99.90;;;;;;6177177;28;20142;-80
2023/04/12 08:02:40;;;;;;;3.45;1.20;;;11.00;99.90;;;;;;6176992;28;20436;-79
2023/04/12 08:05:44;;;;;;;2.33;0.90;;;11.00;99.90;;;;;;6177187;28;20066;-80
2023/04/12 08:08:45;;;;;;;;;;;10.90;99.90;;;;;;6161309;28;20076;-79
2023/04/12 08:11:47;;;;;;;3.10;1.10;;;11.10;99.90;;;;;;6153203;29;19922;-81
2023/04/12 08:14:49;;;;;;;2.53;0.90;;;11.20;99.90;;;;;;6153274;29;20043;-81
2023/04/12 08:17:53;;;;;;;2.60;0.90;;;11.20;99.90;;;;;;6153556;29;20055;-78
2023/04/12 08:20:55;;;;;;;2.45;0.90;;;11.30;99.90;;;;;;6157008;29;20047;-80
2023/04/12 08:23:56;;;;;;;3.15;1.00;;;11.30;99.90;;;;;;6191018;28;20085;-78
2023/04/12 08:26:59;;;;;;;2.60;1.00;;;11.30;99.90;;;;;;6179464;28;20510;-81
2023/04/12 08:30:02;;;;;;;3.47;1.20;;;11.30;99.90;;;;;;6152686;28;20493;-79
2023/04/12 08:33:05;;;;;;;2.70;0.93;;;11.50;99.90;;;;;;6149155;28;20523;-78
2023/04/12 08:36:09;;;;;;;2.85;1.25;;;11.80;99.90;;;;;;6150111;28;20416;-78
2023/04/12 08:39:10;;;;;;;2.78;1.10;;;12.00;99.90;;;;;;6149269;29;20055;-79
2023/04/12 08:42:15;;;;;;;3.30;1.00;;;12.10;99.90;;;;;;6150087;28;20058;-78
2023/04/12 08:45:17;;;;;;;2.50;0.90;;;12.00;99.90;;;;;;6173301;28;20057;-79
2023/04/12 08:48:22;;;;;;;4.07;1.00;;;12.00;99.90;;;;;;6172362;28;20312;-80
2023/04/12 08:51:24;;;;;;;4.57;1.15;;;12.10;99.90;;;;;;6171226;28;20408;-78
2023/04/12 08:54:27;;;;;;;3.00;0.95;;;12.10;99.90;;;;;;6162545;28;20055;-77
2023/04/12 08:57:29;;;;;;;2.40;0.90;;;12.30;99.90;;;;;;6169673;28;20046;-78
2023/04/12 09:00:32;;;;;;;3.78;1.20;;;12.30;99.90;;;;;;6151982;28;20412;-78
2023/04/12 09:03:36;;;;;;;2.83;1.02;;;12.30;99.90;;;;;;6149394;28;20055;-79
2023/04/12 09:06:40;;;;;;;3.80;1.00;;;12.40;99.90;;;;;;6162301;28;20478;-81
2023/04/12 09:09:43;;;;;;;2.42;0.90;;;12.40;99.90;;;;;;6148628;29;20394;-78
2023/04/12 09:12:46;;;;;;;3.95;1.25;;;12.40;99.90;;;;;;6160378;28;20062;-79
2023/04/12 09:15:50;;;;;;;4.32;1.50;;;12.40;99.90;;;;;;6155003;28;20061;-78
2023/04/12 09:18:54;;;;;;;5.35;1.50;;;12.40;99.90;;;;;;6161490;28;20094;-76
2023/04/12 09:21:56;;;;;;;4.38;1.30;;;12.40;99.90;;;;;;6148085;28;20149;-79
2023/04/12 09:24:58;;;;;;;4.28;1.35;;;12.60;99.90;;;;;;6160357;28;20062;-77
2023/04/12 09:28:00;;;;;;;2.78;1.17;;;12.60;99.90;;;;;;6159907;28;20053;-80
2023/04/12 09:31:02;;;;;;;3.88;1.20;;;12.70;99.90;;;;;;6155621;28;20054;-80
2023/04/12 09:34:09;;;;;;;3.28;1.20;;;12.80;99.90;;;;;;6170317;28;20057;-81
2023/04/12 09:37:15;;;;;;;4.60;1.40;;;12.80;99.90;;;;;;6164476;28;20051;-80
2023/04/12 09:40:25;;;;;;;5.30;2.38;;;12.80;99.90;;;;;;6163377;28;20073;-80
2023/04/12 09:43:37;;;;;;;23.90;10.70;;;12.90;99.90;;;;;;6154326;28;20051;-81
2023/04/12 09:46:51;;;;;;;9.05;4.22;;;12.90;99.90;;;;;;6171399;28;20053;-78
2023/04/12 09:49:54;;;;;;;4.97;1.50;;;12.90;99.90;;;;;;6156236;29;20059;-78
2023/04/12 09:52:57;;;;;;;2.97;1.10;;;13.10;99.90;;;;;;6162505;28;20154;-78
2023/04/12 09:56:01;;;;;;;4.22;1.30;;;13.30;99.90;;;;;;6156073;28;20058;-77
2023/04/12 09:59:05;;;;;;;3.30;1.17;;;13.40;99.90;;;;;;6172099;28;20054;-78
2023/04/12 10:02:15;;;;;;;3.53;1.20;;;13.50;99.90;;;;;;6157070;28;20205;-78
2023/04/12 10:05:20;;;;;;;6.82;1.40;;;13.60;99.90;;;;;;6150905;29;20059;-76
2023/04/12 10:08:23;;;;;;;3.28;1.30;;;13.70;99.90;;;;;;6153111;28;20062;-79
2023/04/12 10:11:27;;;;;;;5.25;1.25;;;13.80;99.90;;;;;;6150550;29;20058;-76
2023/04/12 10:14:30;;;;;;;3.40;1.33;;;13.80;99.30;;;;;;6151321;29;20078;-78
2023/04/12 10:17:34;;;;;;;3.85;1.60;;;14.10;99.30;;;;;;6150939;29;20074;-80
2023/04/12 10:20:40;;;;;;;4.47;1.63;;;14.20;98.40;;;;;;6152079;28;20058;-78
2023/04/12 10:23:44;;;;;;;4.07;1.40;;;14.20;97.90;;;;;;6169734;28;20061;-78
2023/04/12 10:26:49;;;;;;;4.05;1.30;;;14.20;98.80;;;;;;6155716;28;20043;-76
2023/04/12 10:29:51;;;;;;;3.90;1.20;;;14.20;97.50;;;;;;6174791;28;20518;-77
2023/04/12 10:33:16;;;;;;;4.25;1.13;;;14.20;96.60;;;;;;6176641;28;20065;-78
2023/04/12 10:36:19;;;;;;;5.38;1.38;;;14.20;96.50;;;;;;6179011;28;20054;-78
2023/04/12 10:39:40;;;;;;;3.97;1.20;;;14.10;96.30;;;;;;6179190;28;20053;-78
2023/04/12 10:42:42;;;;;;;4.15;1.30;;;14.10;96.20;;;;;;6178860;28;20066;-78
2023/04/12 10:45:44;;;;;;;3.85;1.30;;;14.10;96.60;;;;;;6178909;28;20408;-76
2023/04/12 10:48:52;;;;;;;3.60;1.30;;;14.10;96.90;;;;;;6182904;28;20058;-76
2023/04/12 10:52:16;;;;;;;5.38;1.20;;;14.10;96.70;;;;;;6183370;28;20070;-78
2023/04/12 10:55:31;;;;;;;9.15;2.88;;;14.20;96.60;;;;;;6182740;28;20050;-76
2023/04/12 10:58:56;;;;;;;3.92;1.23;;;14.40;96.90;;;;;;6191460;28;20066;-79
2023/04/12 11:02:11;;;;;;;4.32;1.20;;;14.50;96.30;;;;;;6194243;28;20047;-77
2023/04/12 11:05:17;;;;;;;3.40;1.20;;;14.40;96.30;;;;;;6190148;28;20055;-78
2023/04/12 11:08:20;;;;;;;4.10;1.00;;;14.50;96.70;;;;;;6179204;28;20061;-76
2023/04/12 11:11:22;;;;;;;5.00;1.13;;;14.60;96.50;;;;;;6178487;28;20374;-78
2023/04/12 11:14:29;;;;;;;3.40;1.00;;;14.60;96.20;;;;;;6178389;28;20511;-76
2023/04/12 11:17:31;;;;;;;3.47;1.17;;;14.60;95.90;;;;;;6178391;28;20496;-78
2023/04/12 11:20:33;;;;;;;3.78;1.08;;;14.50;96.00;;;;;;6178138;28;20191;-77
2023/04/12 11:23:40;;;;;;;2.85;1.02;;;14.60;95.70;;;;;;6178240;28;20050;-77
2023/04/12 11:26:42;;;;;;;3.17;0.90;;;14.60;95.80;;;;;;6178093;28;20058;-77
2023/04/12 11:29:48;;;;;;;2.20;0.80;;;14.70;96.00;;;;;;6178227;28;20053;-77
2023/04/12 11:32:50;;;;;;;2.35;0.90;;;14.70;95.50;;;;;;6177871;28;20076;-77
2023/04/12 11:35:52;;;;;;;3.08;0.98;;;14.60;95.70;;;;;;6177865;28;20043;-76
2023/04/12 11:38:55;;;;;;;1.83;0.70;;;14.60;95.40;;;;;;6177794;28;20046;-77
2023/04/12 11:41:58;;;;;;;2.88;1.00;;;14.70;95.40;;;;;;6178958;28;20055;-76
2023/04/12 11:45:00;;;;;;;3.13;0.95;;;14.80;95.40;;;;;;6187104;28;20047;-77
2023/04/12 11:48:02;;;;;;;2.88;0.90;;;14.80;95.50;;;;;;6189574;28;20043;-78
2023/04/12 11:51:19;;;;;;;2.40;1.00;;;14.80;94.90;;;;;;6182595;28;20043;-78
2023/04/12 11:54:29;;;;;;;2.72;0.98;;;14.90;94.80;;;;;;6177670;28;20515;-78
2023/04/12 11:57:31;;;;;;;3.50;0.90;;;14.90;94.80;;;;;;6177672;28;20051;-77
2023/04/12 12:00:33;;;;;;;4.47;0.90;;;14.90;94.90;;;;;;6177658;28;20054;-76
2023/04/12 12:03:35;;;;;;;2.67;0.90;;;14.90;95.00;;;;;;6179305;28;20050;-78
2023/04/12 12:06:36;;;;;;;3.05;1.05;;;14.90;95.30;;;;;;6180033;28;20058;-77
2023/04/12 12:09:41;;;;;;;2.08;0.70;;;14.90;95.00;;;;;;6179710;28;20053;-77
2023/04/12 12:12:43;;;;;;;2.92;0.90;;;14.80;95.60;;;;;;6177447;28;20046;-76
2023/04/12 12:15:45;;;;;;;3.03;0.70;;;14.80;95.60;;;;;;6177974;28;20054;-78
2023/04/12 12:18:49;;;;;;;2.50;0.80;;;14.90;95.50;;;;;;6178549;28;20057;-77
2023/04/12 12:21:51;;;;;;;2.58;0.80;;;14.70;95.60;;;;;;6179078;28;20058;-79
2023/04/12 12:24:57;;;;;;;2.55;0.85;;;14.90;95.70;;;;;;6177924;28;20054;-77
2023/04/12 12:27:59;;;;;;;2.28;0.88;;;14.90;95.50;;;;;;6188955;28;20055;-78
2023/04/12 12:31:00;;;;;;;2.97;0.77;;;15.00;95.30;;;;;;6193045;28;20054;-77
2023/04/12 12:34:02;;;;;;;2.35;0.80;;;15.10;95.20;;;;;;6201214;28;20046;-76
2023/04/12 12:37:09;;;;;;;4.20;0.90;;;15.50;95.10;;;;;;6200525;28;20057;-76
2023/04/12 12:40:13;;;;;;;3.78;0.95;;;15.70;94.80;;;;;;6200636;28;20126;-78
2023/04/12 12:43:19;;;;;;;3.22;0.88;;;15.70;94.40;;;;;;6200401;28;20476;-76
2023/04/12 12:46:21;;;;;;;1.60;0.70;;;15.70;94.60;;;;;;6200689;28;20050;-76
2023/04/12 12:49:23;;;;;;;2.97;0.85;;;15.70;94.50;;;;;;6200306;28;20054;-77
2023/04/12 12:52:25;;;;;;;2.05;0.70;;;15.70;94.20;;;;;;6200838;28;20050;-78
2023/04/12 12:55:30;;;;;;;2.30;0.70;;;15.70;94.50;;;;;;6199967;28;20066;-76
2023/04/12 12:58:34;;;;;;;2.80;0.60;;;15.40;94.00;;;;;;6200632;28;20050;-76
2023/04/12 13:01:36;;;;;;;1.42;0.50;;;15.30;94.00;;;;;;6199972;28;20050;-79
2023/04/12 13:04:38;;;;;;;2.00;0.77;;;15.30;93.90;;;;;;6200450;28;20047;-77
2023/04/12 13:07:41;;;;;;;2.85;0.70;;;15.30;94.30;;;;;;6200242;28;20046;-78
2023/04/12 13:10:44;;;;;;;3.30;0.80;;;15.50;94.10;;;;;;6200096;28;20438;-76
2023/04/12 13:13:46;;;;;;;3.50;0.90;;;15.50;94.10;;;;;;6200269;28;20074;-79
2023/04/12 13:16:48;;;;;;;3.15;0.80;;;15.50;94.40;;;;;;6200252;28;20046;-78
2023/04/12 13:19:50;;;;;;;17.92;8.57;;;15.50;94.40;;;;;;6200182;28;20476;-77
2023/04/12 13:22:52;;;;;;;14.30;6.95;;;15.40;94.40;;;;;;6199581;28;20549;-78
2023/04/12 13:25:55;;;;;;;3.35;0.93;;;15.40;94.60;;;;;;6199541;28;20151;-77
2023/04/12 13:28:58;;;;;;;2.88;0.60;;;15.30;94.60;;;;;;6199395;28;20407;-78
2023/04/12 13:32:00;;;;;;;2.03;0.63;;;15.20;94.80;;;;;;6199186;28;20054;-78
2023/04/12 13:35:02;;;;;;;2.17;0.60;;;15.10;94.80;;;;;;6199446;28;20077;-77
2023/04/12 13:38:04;;;;;;;2.10;0.70;;;15.10;94.50;;;;;;6199150;28;20408;-76
2023/04/12 13:41:07;;;;;;;2.00;0.60;;;15.10;94.50;;;;;;6199102;28;20057;-78
2023/04/12 13:44:09;;;;;;;2.63;0.70;;;15.10;94.80;;;;;;6199400;28;20057;-77
2023/04/12 13:47:11;;;;;;;1.20;0.60;;;15.10;94.80;;;;;;6199177;28;20415;-77
2023/04/12 13:50:13;;;;;;;1.52;0.50;;;15.10;94.30;;;;;;6199241;28;20053;-76
2023/04/12 13:53:15;;;;;;;2.10;0.90;;;15.10;94.10;;;;;;6199000;28;20411;-78
2023/04/12 13:56:18;;;;;;;2.50;0.70;;;15.00;94.10;;;;;;6199182;28;20050;-79
2023/04/12 13:59:20;;;;;;;2.70;0.52;;;15.10;94.00;;;;;;6199173;28;20050;-79
2023/04/12 14:02:22;;;;;;;1.42;0.63;;;15.20;93.90;;;;;;6202544;28;20043;-78
2023/04/12 14:05:24;;;;;;;2.35;0.70;;;15.40;93.90;;;;;;6204615;28;20073;-80
2023/04/12 14:08:26;;;;;;;2.90;0.70;;;15.40;94.10;;;;;;6208392;28;20052;-79
2023/04/12 14:11:29;;;;;;;2.00;0.70;;;15.50;93.90;;;;;;6208503;28;20554;-78
2023/04/12 14:14:31;;;;;;;1.83;0.70;;;15.50;93.80;;;;;;6204019;28;20156;-77
2023/04/12 14:17:33;;;;;;;1.48;0.65;;;15.50;93.80;;;;;;6186828;28;20495;-77
2023/04/12 14:20:35;;;;;;;2.83;0.65;;;15.50;93.80;;;;;;6204168;28;20065;-77
2023/04/12 14:23:37;;;;;;;2.47;0.60;;;15.40;93.80;;;;;;6203610;28;20408;-80
2023/04/12 14:26:40;;;;;;;1.85;0.63;;;15.30;93.80;;;;;;6203577;28;20046;-78
2023/04/12 14:29:42;;;;;;;1.15;0.60;;;15.40;93.80;;;;;;6203647;28;20062;-76
2023/04/12 14:32:44;;;;;;;1.30;0.52;;;15.50;93.60;;;;;;6203397;28;20057;-77
2023/04/12 14:35:46;;;;;;;1.55;0.60;;;15.40;93.90;;;;;;6203227;28;20047;-79
2023/04/12 14:38:48;;;;;;;2.17;0.70;;;15.40;93.50;;;;;;6204331;28;20069;-80
2023/04/12 14:41:53;;;;;;;2.08;0.70;;;15.50;93.50;;;;;;6203687;28;20050;-77
2023/04/12 14:44:55;;;;;;;1.10;0.52;;;15.60;93.30;;;;;;6203409;28;20059;-77
2023/04/12 14:47:56;;;;;;;1.55;0.57;;;15.70;92.90;;;;;;6203212;28;20050;-78
2023/04/12 14:50:58;;;;;;;2.03;0.57;;;15.60;92.50;;;;;;6193281;28;20518;-79
2023/04/12 14:54:00;;;;;;;2.08;0.70;;;15.50;92.90;;;;;;6181554;28;21236;-78
2023/04/12 14:57:04;;;;;;;1.98;0.52;;;15.40;93.20;;;;;;6169893;28;20050;-80
2023/04/12 15:00:12;;;;;;;2.42;0.73;;;15.50;93.10;;;;;;6188179;28;20476;-80
2023/04/12 15:03:15;;;;;;;1.00;0.40;;;15.50;92.70;;;;;;6201081;28;20117;-80
2023/04/12 15:06:17;;;;;;;2.20;0.68;;;15.60;93.10;;;;;;6199906;28;20050;-79
2023/04/12 15:09:19;;;;;;;3.40;0.60;;;15.50;93.10;;;;;;6204092;28;20054;-78
2023/04/12 15:12:23;;;;;;;1.88;0.60;;;15.70;92.60;;;;;;6199010;28;20519;-76
2023/04/12 15:15:25;;;;;;;7.82;0.90;;;15.90;92.30;;;;;;6207373;28;20046;-78
2023/04/12 15:18:26;;;;;;;1.70;0.50;;;15.80;91.30;;;;;;6203758;28;20050;-80
2023/04/12 15:21:28;;;;;;;2.22;0.55;;;16.00;91.10;;;;;;6189437;28;20500;-79
2023/04/12 15:24:30;;;;;;;2.30;0.60;;;15.90;90.30;;;;;;6195489;28;20053;-78
2023/04/12 15:27:34;;;;;;;2.30;0.60;;;16.00;90.20;;;;;;6196873;28;20054;-80
2023/04/12 15:30:36;;;;;;;2.95;0.68;;;16.30;90.00;;;;;;6193827;28;20135;-75
2023/04/12 15:33:37;;;;;;;1.77;0.55;;;16.20;90.20;;;;;;6193711;28;20054;-78
2023/04/12 15:36:41;;;;;;;3.03;0.55;;;16.10;88.50;;;;;;6196452;28;20511;-78
2023/04/12 15:39:43;;;;;;;1.67;0.57;;;15.70;89.70;;;;;;6189257;28;20050;-78
2023/04/12 15:42:46;;;;;;;1.60;0.60;;;15.40;90.60;;;;;;6200927;28;20042;-78
2023/04/12 15:45:51;;;;;;;0.88;0.40;;;14.00;95.20;;;;;;6204088;28;20047;-77
2023/04/12 15:48:53;;;;;;;0.63;0.20;;;13.50;97.30;;;;;;6200899;28;20492;-78
2023/04/12 15:51:56;;;;;;;1.02;0.32;;;13.10;97.30;;;;;;6195861;28;20526;-77
2023/04/12 15:54:58;;;;;;;0.57;0.15;;;12.90;98.10;;;;;;6198027;28;20055;-78
2023/04/12 15:58:01;;;;;;;0.88;0.20;;;12.80;98.10;;;;;;6197586;28;20061;-76
2023/04/12 16:01:03;;;;;;;0.30;0.10;;;12.70;98.00;;;;;;6188038;28;20408;-80
2023/04/12 16:04:05;;;;;;;1.95;0.40;;;12.80;98.10;;;;;;6193353;28;20061;-77
2023/04/12 16:07:07;;;;;;;0.65;0.20;;;13.60;97.10;;;;;;6194981;28;20506;-81
2023/04/12 16:10:10;;;;;;;1.40;0.17;;;13.60;95.70;;;;;;6196366;28;20455;-80
2023/04/12 16:13:14;;;;;;;1.65;0.30;;;13.60;95.90;;;;;;6194991;28;20061;-79
2023/04/12 16:16:17;;;;;;;0.32;0.20;;;13.50;96.00;;;;;;6186867;28;20058;-80
2023/04/12 16:19:19;;;;;;;0.65;0.25;;;13.60;96.70;;;;;;6176720;28;20505;-78
2023/04/12 16:22:21;;;;;;;0.88;0.35;;;13.60;98.00;;;;;;6194028;28;20058;-80
2023/04/12 16:25:26;;;;;;;1.40;0.40;;;13.30;98.50;;;;;;6193865;28;20061;-77
2023/04/12 16:28:29;;;;;;;1.02;0.30;;;13.20;98.80;;;;;;6192161;28;20145;-79
2023/04/12 16:31:31;;;;;;;1.20;0.30;;;13.00;97.80;;;;;;6179943;28;20055;-79
2023/04/12 16:34:33;;;;;;;0.77;0.30;;;12.80;98.70;;;;;;6165342;28;20116;-75
2023/04/12 16:37:37;;;;;;;1.40;0.40;;;12.60;98.80;;;;;;6193502;28;20065;-78
2023/04/12 16:40:39;;;;;;;2.20;0.30;;;12.50;99.00;;;;;;6189454;28;20137;-79
2023/04/12 16:43:43;;;;;;;0.75;0.30;;;12.60;99.30;;;;;;6185065;28;20386;-79
2023/04/12 16:46:48;;;;;;;;;;;12.50;99.20;;;;;;6173398;28;20071;-78
2023/04/12 16:49:51;;;;;;;1.92;0.30;;;12.40;99.50;;;;;;6190388;28;20421;-77
2023/04/12 16:52:52;;;;;;;1.25;0.30;;;12.30;99.90;;;;;;6181224;28;20050;-78
2023/04/12 16:55:55;;;;;;;0.57;0.30;;;12.20;99.90;;;;;;6184582;28;20483;-76
2023/04/12 16:58:58;;;;;;;1.60;0.45;;;12.10;99.90;;;;;;6192571;28;20050;-79
2023/04/12 17:02:00;;;;;;;0.55;0.20;;;12.10;99.90;;;;;;6189012;28;20070;-79
2023/04/12 17:05:04;;;;;;;2.10;0.70;;;12.10;99.90;;;;;;6191045;28;20073;-77
2023/04/12 17:08:08;;;;;;;3.53;0.52;;;12.00;99.90;;;;;;6183547;28;20050;-77
2023/04/12 17:11:10;;;;;;;1.48;0.40;;;12.00;99.90;;;;;;6190281;28;20051;-79
2023/04/12 17:14:13;;;;;;;1.77;0.60;;;11.90;99.90;;;;;;6185932;28;20050;-77
2023/04/12 17:17:16;;;;;;;1.67;0.57;;;11.70;99.90;;;;;;6186019;28;20046;-79
2023/04/12 17:20:20;;;;;;;0.93;0.40;;;11.60;99.90;;;;;;6194888;28;20050;-76
2023/04/12 17:23:23;;;;;;;1.27;0.50;;;11.60;99.90;;;;;;6195570;28;20053;-77
2023/04/12 17:26:26;;;;;;;2.13;0.50;;;11.50;99.90;;;;;;6193242;28;20049;-77
2023/04/12 17:29:29;;;;;;;1.77;0.60;;;11.40;99.90;;;;;;6190982;28;20043;-76
2023/04/12 17:32:31;;;;;;;1.27;0.40;;;11.40;99.90;;;;;;6194546;28;20059;-77
2023/04/12 17:35:33;;;;;;;3.72;0.80;;;11.40;99.90;;;;;;6195149;28;20054;-79
2023/04/12 17:38:35;;;;;;;1.33;0.50;;;11.40;99.90;;;;;;6192577;28;20370;-80
2023/04/12 17:41:39;;;;;;;1.63;0.50;;;11.30;99.90;;;;;;6191041;28;20154;-75
2023/04/12 17:44:42;;;;;;;;;;;11.30;99.90;;;;;;6206546;28;20060;-78
2023/04/12 17:47:44;;;;;;;1.88;0.40;;;11.20;99.90;;;;;;6199394;28;19933;-78
2023/04/12 17:50:46;;;;;;;1.75;0.50;;;11.20;99.90;;;;;;6203368;28;20054;-76
2023/04/12 17:53:49;;;;;;;1.63;0.65;;;11.10;99.90;;;;;;6195215;28;20057;-78
2023/04/12 17:56:50;;;;;;;2.10;0.70;;;11.20;99.90;;;;;;6195272;28;20057;-78
2023/04/12 17:59:54;;;;;;;1.73;0.55;;;11.20;99.90;;;;;;6190622;28;20047;-78
2023/04/12 18:02:56;;;;;;;1.70;0.60;;;11.00;99.90;;;;;;6175381;28;20058;-80
2023/04/12 18:05:59;;;;;;;2.75;0.82;;;11.10;99.90;;;;;;6173895;28;20046;-78
2023/04/12 18:09:01;;;;;;;2.75;1.15;;;11.20;99.90;;;;;;6174178;28;20047;-78
2023/04/12 18:12:03;;;;;;;1.63;0.52;;;11.20;99.90;;;;;;6193619;28;20057;-78
2023/04/12 18:15:09;;;;;;;1.85;0.70;;;11.20;99.90;;;;;;6190372;28;20169;-79
2023/04/12 18:18:11;;;;;;;2.05;0.60;;;11.10;99.90;;;;;;6193749;28;20046;-79
2023/04/12 18:21:13;;;;;;;2.63;0.50;;;11.10;99.90;;;;;;6195343;28;20181;-78
2023/04/12 18:24:15;;;;;;;1.38;0.50;;;11.00;99.90;;;;;;6190819;28;20694;-76
2023/04/12 18:27:17;;;;;;;2.00;0.60;;;11.00;99.90;;;;;;6173371;28;20059;-78
2023/04/12 18:30:21;;;;;;;0.98;0.43;;;10.90;99.90;;;;;;6172434;28;20058;-80
2023/04/12 18:33:23;;;;;;;2.33;0.60;;;10.90;99.90;;;;;;6190509;28;20058;-79
2023/04/12 18:36:26;;;;;;;1.73;0.60;;;10.90;99.90;;;;;;6194964;28;20062;-77
2023/04/12 18:39:28;;;;;;;1.45;0.63;;;10.90;99.90;;;;;;6191333;28;20042;-76
2023/04/12 18:42:30;;;;;;;1.52;0.60;;;10.90;99.90;;;;;;6194519;28;20446;-78
2023/04/12 18:45:38;;;;;;;3.70;0.77;;;10.90;99.90;;;;;;6188955;28;20047;-78
2023/04/12 18:48:40;;;;;;;3.00;1.10;;;10.70;99.90;;;;;;6191873;28;20381;-80
2023/04/12 18:51:43;;;;;;;2.28;0.80;;;10.70;99.90;;;;;;6178657;28;20050;-80
2023/04/12 18:54:45;;;;;;;1.98;0.70;;;10.80;99.90;;;;;;6172618;28;20062;-80
2023/04/12 18:57:47;;;;;;;2.05;0.75;;;10.90;99.90;;;;;;6175311;28;20057;-76
2023/04/12 19:00:50;;;;;;;1.98;0.70;;;10.80;99.90;;;;;;6195488;28;20085;-79
2023/04/12 19:03:52;;;;;;;1.77;0.60;;;10.80;99.90;;;;;;6183388;28;20412;-80
2023/04/12 19:06:56;;;;;;;2.03;0.80;;;10.70;99.90;;;;;;6173162;28;20119;-76
2023/04/12 19:09:58;;;;;;;1.98;0.80;;;10.80;99.90;;;;;;6190244;28;20092;-74
2023/04/12 19:13:00;;;;;;;1.52;0.70;;;10.80;99.90;;;;;;6174623;28;20059;-75
2023/04/12 19:16:06;;;;;;;1.60;0.73;;;10.70;99.90;;;;;;6182342;28;20057;-76
2023/04/12 19:19:08;;;;;;;2.85;0.60;;;10.80;99.90;;;;;;6198658;28;20061;-77
2023/04/12 19:22:10;;;;;;;2.63;0.80;;;10.70;99.90;;;;;;6198440;28;20158;-76
2023/04/12 19:25:13;;;;;;;1.70;0.60;;;10.80;99.90;;;;;;6198270;28;20177;-75
2023/04/12 19:28:15;;;;;;;1.45;0.60;;;10.70;99.90;;;;;;6197136;28;20105;-75
2023/04/12 19:31:18;;;;;;;1.60;0.70;;;10.80;99.90;;;;;;6197251;28;20066;-75
2023/04/12 19:34:20;;;;;;;1.17;0.60;;;10.70;99.90;;;;;;6196605;28;20057;-75
2023/04/12 19:37:22;;;;;;;1.40;0.70;;;10.80;99.90;;;;;;6197828;28;20681;-80
2023/04/12 19:40:24;;;;;;;1.75;0.70;;;10.90;99.90;;;;;;6176622;28;20054;-76
2023/04/12 19:43:26;;;;;;;1.25;0.60;;;10.80;99.90;;;;;;6194001;28;20158;-78
2023/04/12 19:46:31;;;;;;;2.10;0.68;;;10.80;99.90;;;;;;6196253;28;20042;-79
2023/04/12 19:49:33;;;;;;;1.75;0.70;;;10.90;99.90;;;;;;6189721;28;20480;-77
2023/04/12 19:52:35;;;;;;;1.90;0.80;;;10.90;99.90;;;;;;6195459;28;20128;-77
2023/04/12 19:55:38;;;;;;;2.03;0.88;;;10.80;99.90;;;;;;6197851;28;20053;-78
2023/04/12 19:58:40;;;;;;;1.13;0.57;;;10.80;99.90;;;;;;6197558;28;20515;-79
2023/04/12 20:01:47;;;;;;;1.67;0.60;;;10.80;99.90;;;;;;6183275;28;20537;-80
2023/04/12 20:04:49;;;;;;;1.92;0.50;;;10.80;99.90;;;;;;6194160;28;20050;-80
2023/04/12 20:07:54;;;;;;;1.08;0.50;;;10.80;99.90;;;;;;6193418;28;20050;-79
2023/04/12 20:10:56;;;;;;;2.00;0.70;;;10.70;99.90;;;;;;6198146;28;20145;-79
2023/04/12 20:13:58;;;;;;;2.45;0.57;;;10.70;99.90;;;;;;6195690;28;20083;-81
2023/04/12 20:17:04;;;;;;;1.35;0.50;;;10.70;99.90;;;;;;6180604;28;20050;-79
2023/04/12 20:20:09;;;;;;;2.00;0.90;;;10.70;99.90;;;;;;6200834;28;20345;-81
2023/04/12 20:23:12;;;;;;;2.20;0.98;;;10.60;99.90;;;;;;6210156;28;20101;-78
2023/04/12 20:26:14;;;;;;;1.90;0.70;;;10.70;99.90;;;;;;6204320;28;20054;-80
2023/04/12 20:29:17;;;;;;;1.98;0.77;;;10.70;99.90;;;;;;6192392;28;20412;-77
2023/04/12 20:32:20;;;;;;;1.75;0.60;;;10.60;99.90;;;;;;6174496;28;20140;-77
2023/04/12 20:35:22;;;;;;;2.42;1.00;;;10.60;99.90;;;;;;6173813;28;20408;-79
2023/04/12 20:38:24;;;;;;;2.13;0.65;;;10.60;99.90;;;;;;6194118;28;20403;-77
2023/04/12 20:41:26;;;;;;;1.92;0.80;;;10.60;99.90;;;;;;6197293;28;20148;-79
2023/04/12 20:44:28;;;;;;;1.45;0.60;;;10.60;99.90;;;;;;6197161;28;20057;-79
2023/04/12 20:47:33;;;;;;;2.80;1.00;;;10.50;99.90;;;;;;6179791;28;20046;-79
2023/04/12 20:50:35;;;;;;;1.98;0.77;;;10.50;99.90;;;;;;6195272;28;20492;-78
2023/04/12 20:53:38;;;;;;;2.17;0.70;;;10.40;99.90;;;;;;6196952;28;20046;-79
2023/04/12 20:56:40;;;;;;;1.70;0.80;;;10.30;99.90;;;;;;6197533;28;20128;-79
2023/04/12 20:59:42;;;;;;;2.25;0.80;;;10.40;99.90;;;;;;6195927;28;20050;-78
2023/04/12 21:02:47;;;;;;;2.78;0.80;;;10.30;99.90;;;;;;6178855;28;20057;-80
2023/04/12 21:05:49;;;;;;;1.50;0.65;;;10.30;99.90;;;;;;6196368;28;20077;-81
2023/04/12 21:08:52;;;;;;;2.22;0.80;;;10.30;99.90;;;;;;6193517;28;20185;-78
2023/04/12 21:11:54;;;;;;;2.58;0.88;;;10.30;99.90;;;;;;6194798;28;20057;-80
2023/04/12 21:14:56;;;;;;;2.05;0.70;;;10.20;99.90;;;;;;6192701;28;20073;-81
2023/04/12 21:18:00;;;;;;;2.80;0.90;;;10.20;99.90;;;;;;6180986;28;20059;-78
2023/04/12 21:21:02;;;;;;;1.05;0.50;;;10.00;99.90;;;;;;6180500;28;20039;-78
2023/04/12 21:24:05;;;;;;;2.45;0.70;;;10.00;99.90;;;;;;6194190;28;20047;-79
2023/04/12 21:27:08;;;;;;;2.53;0.93;;;10.00;99.90;;;;;;6191720;28;20078;-80
2023/04/12 21:30:11;;;;;;;1.77;0.73;;;10.00;99.90;;;;;;6192949;28;20042;-78
2023/04/12 21:33:23;;;;;;;1.83;0.60;;;10.00;99.90;;;;;;6198939;28;20070;-78
2023/04/12 21:36:26;;;;;;;1.38;0.57;;;10.10;99.90;;;;;;6198268;28;20194;-80
2023/04/12 21:39:28;;;;;;;1.88;0.60;;;10.00;99.90;;;;;;6180434;28;20536;-79
2023/04/12 21:42:31;;;;;;;1.98;0.35;;;9.60;99.90;;;;;;6198331;28;20056;-80
2023/04/12 21:45:33;;;;;;;0.80;0.20;;;9.50;99.90;;;;;;6198856;28;20404;-80
2023/04/12 21:48:36;;;;;;;1.13;0.40;;;9.40;99.90;;;;;;6200005;28;20062;-79
2023/04/12 21:51:38;;;;;;;0.82;0.40;;;9.40;99.90;;;;;;6191980;28;20055;-78
2023/04/12 21:54:40;;;;;;;1.17;0.40;;;9.40;99.90;;;;;;6175215;28;20051;-80
2023/04/12 21:57:43;;;;;;;1.95;0.47;;;9.50;99.90;;;;;;6189751;28;20400;-79
